createdAt,value
2023-03-15T00:12:29.261Z,45.52
2023-03-15T00:27:31.501Z,44.76
2023-03-15T00:42:33.722Z,46.851
2023-03-15T00:57:35.948Z,48.031
2023-03-15T01:12:38.190Z,47.049
2023-03-15T01:27:40.435Z,48.236
2023-03-15T01:42:42.773Z,49.322
2023-03-15T01:57:45.067Z,50.034
2023-03-15T02:12:47.292Z,53.281
2023-03-15T02:27:49.575Z,51.492
2023-03-15T02:42:51.907Z,54.175
2023-03-15T02:57:54.204Z,53.237
2023-03-15T03:12:56.503Z,55.591
2023-03-15T03:27:58.794Z,55.85
2023-03-15T03:43:01.096Z,56.741
2023-03-15T03:58:03.305Z,56.932
2023-03-15T04:13:05.573Z,57.207
2023-03-15T04:28:07.865Z,57.01
2023-03-15T04:43:10.130Z,58.152
2023-03-15T04:58:12.460Z,59.376
2023-03-15T05:13:14.822Z,58.498
2023-03-15T05:28:17.073Z,59.166
2023-03-15T05:43:19.521Z,59.56
2023-03-15T05:58:21.855Z,58.452
2023-03-15T06:13:24.121Z,61.124
2023-03-15T06:28:26.422Z,59.559
2023-03-15T06:43:28.710Z,60.075
2023-03-15T06:58:30.971Z,60.08
2023-03-15T07:13:33.191Z,61.155
2023-03-15T07:28:35.791Z,61.262
2023-03-15T07:43:38.057Z,60.385
2023-03-15T07:58:40.313Z,59.86
2023-03-15T08:13:42.536Z,62.762
2023-03-15T08:28:44.938Z,62.052
2023-03-15T08:43:47.213Z,62.545
2023-03-15T08:58:49.468Z,62.079
2023-03-15T09:13:51.705Z,61.645
2023-03-15T09:28:53.940Z,65.052
2023-03-15T09:43:56.203Z,63.984
2023-03-15T09:58:58.630Z,64.351
2023-03-15T10:14:00.853Z,63.38
2023-03-15T10:29:03.068Z,66.159
2023-03-15T10:44:05.520Z,63.087
2023-03-15T10:59:12.716Z,63.567
2023-03-15T11:14:15.326Z,64.333
2023-03-15T11:29:17.533Z,62.545
2023-03-15T11:44:19.900Z,63.006
2023-03-15T11:59:22.141Z,63.442
2023-03-15T12:14:24.401Z,62.203
2023-03-15T12:29:26.618Z,64.409
2023-03-15T12:44:29.013Z,64.038
2023-03-15T12:59:31.251Z,62.854
2023-03-15T13:14:33.538Z,62.574
2023-03-15T13:29:35.735Z,63.089
2023-03-15T13:44:37.955Z,63.079
2023-03-15T13:59:40.973Z,64.908
2023-03-15T14:14:43.270Z,63.752
2023-03-15T14:29:45.532Z,63.929
2023-03-15T14:44:47.844Z,63.544
2023-03-15T14:59:50.066Z,64.122
2023-03-15T15:14:52.303Z,62.866
2023-03-15T15:29:54.557Z,62.635
2023-03-15T15:44:56.789Z,60.81
2023-03-15T15:59:59.021Z,63.6
2023-03-15T16:15:01.471Z,63.07
2023-03-15T16:30:03.674Z,59.917
2023-03-15T16:45:05.941Z,59.167
2023-03-15T17:00:08.174Z,60.755
2023-03-15T17:15:10.463Z,61.125
2023-03-15T17:30:12.985Z,59.897
2023-03-15T17:45:15.435Z,59.395
2023-03-15T18:00:17.720Z,54.43
2023-03-15T18:15:19.934Z,55.676
2023-03-15T18:30:22.212Z,54.4
2023-03-15T18:45:24.744Z,55.544
2023-03-15T19:00:27.106Z,55.064
2023-03-15T19:15:29.378Z,52.846
2023-03-15T19:30:31.694Z,54.439
2023-03-15T19:45:33.983Z,54.115
2023-03-15T20:00:36.385Z,53.84
2023-03-15T20:15:38.757Z,53.956
2023-03-15T20:30:43.241Z,53.359
2023-03-15T20:45:46.538Z,54.485
2023-03-15T21:00:48.956Z,54.014
2023-03-15T21:15:51.245Z,45.424
2023-03-15T21:30:53.534Z,48.584
2023-03-15T21:45:56.017Z,43.666
2023-03-15T22:00:58.451Z,47.997
2023-03-15T22:16:00.804Z,44.137
2023-03-15T22:31:03.119Z,46.613
2023-03-15T22:46:05.464Z,47.052
2023-03-15T23:01:07.866Z,39.165
2023-03-15T23:16:10.174Z,44.3
2023-03-15T23:31:12.516Z,47.524
2023-03-15T23:46:14.867Z,46.536
